sensor_id;sensor_type;location;lat;lon;timestamp;pressure;altitude;pressure_sealevel;temperature;humidity
6565;BME280;3316;44.118;27.258;2023-03-12T00:01:58;99873.59;;;6.80;94.40
6565;BME280;3316;44.118;27.258;2023-03-12T00:04:24;99866.66;;;6.73;95.14
6565;BME280;3316;44.118;27.258;2023-03-12T00:06:50;99876.25;;;6.71;94.60
6565;BME280;3316;44.118;27.258;2023-03-12T00:09:16;99865.00;;;6.60;94.62
6565;BME280;3316;44.118;27.258;2023-03-12T00:11:41;99868.41;;;6.70;93.83
6565;BME280;3316;44.118;27.258;2023-03-12T00:14:07;99879.75;;;6.70;93.81
6565;BME280;3316;44.118;27.258;2023-03-12T00:16:32;99885.00;;;6.64;94.53
6565;BME280;3316;44.118;27.258;2023-03-12T00:18:58;99884.19;;;6.58;94.77
6565;BME280;3316;44.118;27.258;2023-03-12T00:21:24;99905.94;;;6.64;94.34
6565;BME280;3316;44.118;27.258;2023-03-12T00:23:50;99898.09;;;6.60;95.66
6565;BME280;3316;44.118;27.258;2023-03-12T00:26:17;99889.41;;;6.56;95.81
6565;BME280;3316;44.118;27.258;2023-03-12T00:28:43;99894.63;;;6.58;95.71
6565;BME280;3316;44.118;27.258;2023-03-12T00:31:23;99905.94;;;6.60;96.55
6565;BME280;3316;44.118;27.258;2023-03-12T00:33:52;99892.09;;;6.44;97.98
6565;BME280;3316;44.118;27.258;2023-03-12T00:36:20;99906.91;;;6.47;98.40
6565;BME280;3316;44.118;27.258;2023-03-12T00:38:48;99887.78;;;6.34;100.00
6565;BME280;3316;44.118;27.258;2023-03-12T00:41:13;99886.94;;;6.34;100.00
6565;BME280;3316;44.118;27.258;2023-03-12T00:43:39;99881.72;;;6.35;100.00
6565;BME280;3316;44.118;27.258;2023-03-12T00:46:04;99879.16;;;6.27;100.00
6565;BME280;3316;44.118;27.258;2023-03-12T00:48:30;99892.16;;;6.35;100.00
6565;BME280;3316;44.118;27.258;2023-03-12T00:50:55;99891.28;;;6.39;100.00
6565;BME280;3316;44.118;27.258;2023-03-12T00:53:21;99906.06;;;6.40;100.00
6565;BME280;3316;44.118;27.258;2023-03-12T00:55:46;99883.47;;;6.30;100.00
6565;BME280;3316;44.118;27.258;2023-03-12T00:58:11;99891.34;;;6.25;100.00
6565;BME280;3316;44.118;27.258;2023-03-12T01:00:37;99901.78;;;6.27;100.00
6565;BME280;3316;44.118;27.258;2023-03-12T01:03:03;99903.50;;;6.26;100.00
6565;BME280;3316;44.118;27.258;2023-03-12T01:05:28;99875.72;;;6.09;100.00
6565;BME280;3316;44.118;27.258;2023-03-12T01:07:53;99908.78;;;6.22;100.00
6565;BME280;3316;44.118;27.258;2023-03-12T01:10:20;99915.72;;;6.21;100.00
6565;BME280;3316;44.118;27.258;2023-03-12T01:12:46;99912.25;;;6.19;100.00
6565;BME280;3316;44.118;27.258;2023-03-12T01:15:14;99910.53;;;6.15;100.00
6565;BME280;3316;44.118;27.258;2023-03-12T01:17:40;99880.94;;;6.13;100.00
6565;BME280;3316;44.118;27.258;2023-03-12T01:20:06;99907.03;;;6.19;100.00
6565;BME280;3316;44.118;27.258;2023-03-12T01:22:33;99906.22;;;6.04;100.00
6565;BME280;3316;44.118;27.258;2023-03-12T01:24:58;99925.31;;;6.16;100.00
6565;BME280;3316;44.118;27.258;2023-03-12T01:27:24;99904.50;;;6.00;100.00
6565;BME280;3316;44.118;27.258;2023-03-12T01:29:49;99927.13;;;6.04;100.00
6565;BME280;3316;44.118;27.258;2023-03-12T01:32:14;99929.75;;;5.99;100.00
6565;BME280;3316;44.118;27.258;2023-03-12T01:34:41;99944.53;;;6.02;100.00
6565;BME280;3316;44.118;27.258;2023-03-12T01:37:07;99935.00;;;5.90;100.00
6565;BME280;3316;44.118;27.258;2023-03-12T01:39:32;99951.53;;;5.88;100.00
6565;BME280;3316;44.118;27.258;2023-03-12T01:41:57;99959.34;;;5.82;100.00
6565;BME280;3316;44.118;27.258;2023-03-12T01:44:23;99980.25;;;5.83;100.00
6565;BME280;3316;44.118;27.258;2023-03-12T01:46:48;99971.53;;;5.72;100.00
6565;BME280;3316;44.118;27.258;2023-03-12T01:54:25;99983.72;;;5.64;100.00
6565;BME280;3316;44.118;27.258;2023-03-12T01:56:54;99995.91;;;5.65;100.00
6565;BME280;3316;44.118;27.258;2023-03-12T01:59:24;99988.06;;;5.67;100.00
6565;BME280;3316;44.118;27.258;2023-03-12T02:01:52;99968.97;;;5.57;100.00
6565;BME280;3316;44.118;27.258;2023-03-12T02:04:21;99988.97;;;5.67;100.00
6565;BME280;3316;44.118;27.258;2023-03-12T02:07:10;99999.38;;;5.70;100.00
6565;BME280;3316;44.118;27.258;2023-03-12T02:09:41;99990.69;;;5.65;100.00
6565;BME280;3316;44.118;27.258;2023-03-12T02:12:08;99991.56;;;5.60;100.00
6565;BME280;3316;44.118;27.258;2023-03-12T02:14:35;100001.13;;;5.55;100.00
6565;BME280;3316;44.118;27.258;2023-03-12T02:17:01;100013.31;;;5.51;100.00
6565;BME280;3316;44.118;27.258;2023-03-12T02:21:58;100026.34;;;5.54;100.00
6565;BME280;3316;44.118;27.258;2023-03-12T02:24:34;100029.84;;;5.52;100.00
6565;BME280;3316;44.118;27.258;2023-03-12T02:27:03;100029.81;;;5.55;100.00
6565;BME280;3316;44.118;27.258;2023-03-12T02:29:31;99987.22;;;5.30;100.00
6565;BME280;3316;44.118;27.258;2023-03-12T02:31:57;100021.13;;;5.45;100.00
6565;BME280;3316;44.118;27.258;2023-03-12T02:34:24;100035.91;;;5.41;100.00
6565;BME280;3316;44.118;27.258;2023-03-12T02:36:50;100033.31;;;5.51;100.00
6565;BME280;3316;44.118;27.258;2023-03-12T02:39:15;100034.19;;;5.51;100.00
6565;BME280;3316;44.118;27.258;2023-03-12T02:41:50;100032.44;;;5.44;100.00
6565;BME280;3316;44.118;27.258;2023-03-12T02:44:20;100008.06;;;5.25;100.00
6565;BME280;3316;44.118;27.258;2023-03-12T02:46:48;100046.34;;;5.52;100.00
6565;BME280;3316;44.118;27.258;2023-03-12T02:49:17;100051.56;;;5.51;100.00
6565;BME280;3316;44.118;27.258;2023-03-12T02:51:43;100057.66;;;5.57;100.00
6565;BME280;3316;44.118;27.258;2023-03-12T02:54:11;100064.63;;;5.61;100.00
6565;BME280;3316;44.118;27.258;2023-03-12T02:56:38;100054.19;;;5.48;100.00
6565;BME280;3316;44.118;27.258;2023-03-12T02:59:05;100065.47;;;5.48;100.00
6565;BME280;3316;44.118;27.258;2023-03-12T03:01:32;100078.53;;;5.50;100.00
6565;BME280;3316;44.118;27.258;2023-03-12T03:03:59;100075.91;;;5.54;100.00
6565;BME280;3316;44.118;27.258;2023-03-12T03:06:24;100072.44;;;5.48;100.00
6565;BME280;3316;44.118;27.258;2023-03-12T03:08:50;100075.91;;;5.54;100.00
6565;BME280;3316;44.118;27.258;2023-03-12T03:11:16;100073.34;;;5.56;100.00
6565;BME280;3316;44.118;27.258;2023-03-12T03:13:41;100070.72;;;5.51;100.00
6565;BME280;3316;44.118;27.258;2023-03-12T03:16:07;100076.78;;;5.47;100.00
6565;BME280;3316;44.118;27.258;2023-03-12T03:18:33;100036.75;;;5.18;100.00
6565;BME280;3316;44.118;27.258;2023-03-12T03:21:01;100096.78;;;5.48;100.00
6565;BME280;3316;44.118;27.258;2023-03-12T03:23:27;100101.13;;;5.52;100.00
6565;BME280;3316;44.118;27.258;2023-03-12T03:25:53;100094.16;;;5.40;100.00
6565;BME280;3316;44.118;27.258;2023-03-12T03:28:21;100097.66;;;5.41;100.00
6565;BME280;3316;44.118;27.258;2023-03-12T03:30:46;100108.09;;;5.39;100.00
6565;BME280;3316;44.118;27.258;2023-03-12T03:33:12;100098.47;;;5.32;100.00
6565;BME280;3316;44.118;27.258;2023-03-12T03:35:37;100105.44;;;5.29;100.00
6565;BME280;3316;44.118;27.258;2023-03-12T03:38:03;100100.22;;;5.23;100.00
6565;BME280;3316;44.118;27.258;2023-03-12T03:40:28;100121.94;;;5.19;100.00
6565;BME280;3316;44.118;27.258;2023-03-12T03:42:54;100126.25;;;5.06;100.00
6565;BME280;3316;44.118;27.258;2023-03-12T03:45:19;100132.31;;;5.01;100.00
6565;BME280;3316;44.118;27.258;2023-03-12T03:47:45;100133.16;;;4.97;100.00
6565;BME280;3316;44.118;27.258;2023-03-12T03:50:11;100141.84;;;4.93;100.00
6565;BME280;3316;44.118;27.258;2023-03-12T03:52:36;100120.06;;;4.83;100.00
6565;BME280;3316;44.118;27.258;2023-03-12T03:55:02;100135.75;;;4.91;100.00
6565;BME280;3316;44.118;27.258;2023-03-12T03:57:28;100127.00;;;4.81;100.00
6565;BME280;3316;44.118;27.258;2023-03-12T03:59:54;100090.38;;;4.51;100.00
6565;BME280;3316;44.118;27.258;2023-03-12T04:02:20;100164.38;;;4.82;100.00
6565;BME280;3316;44.118;27.258;2023-03-12T04:04:45;100171.28;;;4.77;100.00
6565;BME280;3316;44.118;27.258;2023-03-12T04:07:11;100159.09;;;4.70;100.00
6565;BME280;3316;44.118;27.258;2023-03-12T04:09:36;100172.13;;;4.74;100.00
6565;BME280;3316;44.118;27.258;2023-03-12T04:12:02;100179.94;;;4.70;100.00
6565;BME280;3316;44.118;27.258;2023-03-12T04:14:27;100177.28;;;4.64;100.00
6565;BME280;3316;44.118;27.258;2023-03-12T04:16:53;100182.50;;;4.65;100.00
6565;BME280;3316;44.118;27.258;2023-03-12T04:19:18;100188.56;;;4.61;100.00
6565;BME280;3316;44.118;27.258;2023-03-12T04:21:44;100196.38;;;4.60;100.00
6565;BME280;3316;44.118;27.258;2023-03-12T04:24:13;100172.78;;;4.43;100.00
6565;BME280;3316;44.118;27.258;2023-03-12T04:26:38;100204.19;;;4.63;100.00
6565;BME280;3316;44.118;27.258;2023-03-12T04:29:04;100212.03;;;4.64;100.00
6565;BME280;3316;44.118;27.258;2023-03-12T04:31:29;100220.72;;;4.63;100.00
6565;BME280;3316;44.118;27.258;2023-03-12T04:33:55;100217.28;;;4.69;100.00
6565;BME280;3316;44.118;27.258;2023-03-12T04:36:20;100216.38;;;4.68;100.00
6565;BME280;3316;44.118;27.258;2023-03-12T04:38:46;100218.16;;;4.68;100.00
6565;BME280;3316;44.118;27.258;2023-03-12T04:41:13;100223.41;;;4.77;100.00
6565;BME280;3316;44.118;27.258;2023-03-12T04:43:39;100244.28;;;4.81;100.00
6565;BME280;3316;44.118;27.258;2023-03-12T04:46:05;100246.94;;;4.87;100.00
6565;BME280;3316;44.118;27.258;2023-03-12T04:48:30;100234.75;;;4.86;100.00
6565;BME280;3316;44.118;27.258;2023-03-12T04:50:56;100246.16;;;5.02;100.00
6565;BME280;3316;44.118;27.258;2023-03-12T04:53:22;100265.34;;;5.14;100.00
6565;BME280;3316;44.118;27.258;2023-03-12T04:55:48;100251.50;;;5.24;100.00
6565;BME280;3316;44.118;27.258;2023-03-12T04:58:15;100274.44;;;6.02;100.00
6565;BME280;3316;44.118;27.258;2023-03-12T05:00:41;100278.84;;;6.80;100.00
6565;BME280;3316;44.118;27.258;2023-03-12T05:03:07;100291.03;;;6.78;100.00
6565;BME280;3316;44.118;27.258;2023-03-12T05:05:33;100252.69;;;6.23;100.00
6565;BME280;3316;44.118;27.258;2023-03-12T05:08:00;100266.56;;;5.99;100.00
6565;BME280;3316;44.118;27.258;2023-03-12T05:10:25;100301.38;;;5.86;100.00
6565;BME280;3316;44.118;27.258;2023-03-12T05:12:51;100292.47;;;5.48;100.00
6565;BME280;3316;44.118;27.258;2023-03-12T05:15:16;100315.97;;;5.53;100.00
6565;BME280;3316;44.118;27.258;2023-03-12T05:17:43;100313.31;;;5.45;100.00
6565;BME280;3316;44.118;27.258;2023-03-12T05:20:09;100316.75;;;5.30;100.00
6565;BME280;3316;44.118;27.258;2023-03-12T05:22:35;100323.72;;;5.36;100.00
6565;BME280;3316;44.118;27.258;2023-03-12T05:25:01;100326.25;;;5.25;100.00
6565;BME280;3316;44.118;27.258;2023-03-12T05:27:26;100336.72;;;5.33;100.00
6565;BME280;3316;44.118;27.258;2023-03-12T05:29:52;100342.03;;;5.43;100.00
6565;BME280;3316;44.118;27.258;2023-03-12T05:32:17;100355.06;;;5.45;100.00
6565;BME280;3316;44.118;27.258;2023-03-12T05:34:43;100341.06;;;5.29;100.00
6565;BME280;3316;44.118;27.258;2023-03-12T05:37:08;100347.13;;;5.24;100.00
6565;BME280;3316;44.118;27.258;2023-03-12T05:39:34;100366.34;;;5.41;100.00
6565;BME280;3316;44.118;27.258;2023-03-12T05:41:59;100364.72;;;5.57;100.00
6565;BME280;3316;44.118;27.258;2023-03-12T05:44:26;100376.97;;;5.73;100.00
6565;BME280;3316;44.118;27.258;2023-03-12T05:46:52;100375.38;;;5.93;100.00
6565;BME280;3316;44.118;27.258;2023-03-12T05:49:18;100324.16;;;6.49;100.00
6565;BME280;3316;44.118;27.258;2023-03-12T05:51:46;100376.00;;;8.53;99.87
6565;BME280;3316;44.118;27.258;2023-03-12T05:54:12;100384.91;;;10.23;79.66
6565;BME280;3316;44.118;27.258;2023-03-12T05:56:38;100405.34;;;9.96;75.90
6565;BME280;3316;44.118;27.258;2023-03-12T05:59:04;100399.44;;;8.78;81.99
6565;BME280;3316;44.118;27.258;2023-03-12T06:01:30;100406.75;;;8.11;89.82
6565;BME280;3316;44.118;27.258;2023-03-12T06:03:55;100419.03;;;8.05;91.89
6565;BME280;3316;44.118;27.258;2023-03-12T06:06:21;100406.66;;;8.42;88.37
6565;BME280;3316;44.118;27.258;2023-03-12T06:08:48;100430.31;;;10.34;76.09
6565;BME280;3316;44.118;27.258;2023-03-12T06:11:14;100429.91;;;9.95;74.68
6565;BME280;3316;44.118;27.258;2023-03-12T06:13:39;100443.94;;;8.92;78.87
6565;BME280;3316;44.118;27.258;2023-03-12T06:16:11;100442.50;;;8.38;83.43
6565;BME280;3316;44.118;27.258;2023-03-12T06:18:39;100458.16;;;8.53;85.33
6565;BME280;3316;44.118;27.258;2023-03-12T06:21:12;100457.09;;;8.86;83.22
6565;BME280;3316;44.118;27.258;2023-03-12T06:23:38;100447.75;;;9.62;77.40
6565;BME280;3316;44.118;27.258;2023-03-12T06:26:04;100448.56;;;9.67;75.27
6565;BME280;3316;44.118;27.258;2023-03-12T06:28:30;100454.84;;;9.53;74.73
6565;BME280;3316;44.118;27.258;2023-03-12T06:30:56;100464.84;;;9.06;76.39
6565;BME280;3316;44.118;27.258;2023-03-12T06:33:21;100478.03;;;9.01;79.53
6565;BME280;3316;44.118;27.258;2023-03-12T06:35:47;100483.31;;;8.95;79.29
6565;BME280;3316;44.118;27.258;2023-03-12T06:38:13;100477.22;;;8.85;79.82
6565;BME280;3316;44.118;27.258;2023-03-12T06:40:38;100474.84;;;8.36;81.54
6565;BME280;3316;44.118;27.258;2023-03-12T06:43:04;100506.31;;;8.30;84.21
6565;BME280;3316;44.118;27.258;2023-03-12T06:45:31;100514.16;;;8.42;85.52
6565;BME280;3316;44.118;27.258;2023-03-12T06:47:56;100515.06;;;8.29;88.33
6565;BME280;3316;44.118;27.258;2023-03-12T06:50:22;100502.00;;;8.01;87.88
6565;BME280;3316;44.118;27.258;2023-03-12T06:52:47;100527.34;;;7.84;88.12
6565;BME280;3316;44.118;27.258;2023-03-12T06:55:13;100536.97;;;7.78;89.59
6565;BME280;3316;44.118;27.258;2023-03-12T06:57:41;100524.75;;;7.63;90.63
6565;BME280;3316;44.118;27.258;2023-03-12T07:00:07;100551.81;;;7.71;91.51
6565;BME280;3316;44.118;27.258;2023-03-12T07:02:32;100500.31;;;7.39;91.68
6565;BME280;3316;44.118;27.258;2023-03-12T07:04:58;100570.16;;;7.76;94.46
6565;BME280;3316;44.118;27.258;2023-03-12T07:07:23;100574.50;;;7.75;93.31
6565;BME280;3316;44.118;27.258;2023-03-12T07:09:48;100532.59;;;7.47;93.73
6565;BME280;3316;44.118;27.258;2023-03-12T07:12:14;100585.84;;;7.94;92.05
6565;BME280;3316;44.118;27.258;2023-03-12T07:14:39;100582.56;;;9.64;83.66
6565;BME280;3316;44.118;27.258;2023-03-12T07:17:05;100598.78;;;10.21;74.55
6565;BME280;3316;44.118;27.258;2023-03-12T07:19:30;100599.50;;;10.35;73.13
6565;BME280;3316;44.118;27.258;2023-03-12T07:21:56;100614.91;;;12.49;64.98
6565;BME280;3316;44.118;27.258;2023-03-12T07:24:21;100608.13;;;12.82;59.03
6565;BME280;3316;44.118;27.258;2023-03-12T07:26:47;100632.19;;;13.90;56.77
6565;BME280;3316;44.118;27.258;2023-03-12T07:29:12;100628.06;;;16.76;47.21
6565;BME280;3316;44.118;27.258;2023-03-12T07:31:38;100632.44;;;19.37;40.92
6565;BME280;3316;44.118;27.258;2023-03-12T07:36:30;100649.81;;;22.33;32.53
6565;BME280;3316;44.118;27.258;2023-03-12T07:38:56;100655.63;;;23.43;31.13
6565;BME280;3316;44.118;27.258;2023-03-12T07:41:21;100649.50;;;23.55;30.29
6565;BME280;3316;44.118;27.258;2023-03-12T07:43:47;100658.63;;;19.09;34.46
6565;BME280;3316;44.118;27.258;2023-03-12T07:46:12;100656.13;;;18.01;37.44
6565;BME280;3316;44.118;27.258;2023-03-12T07:48:38;100661.59;;;19.21;35.42
6565;BME280;3316;44.118;27.258;2023-03-12T07:51:04;100681.09;;;16.79;38.28
6565;BME280;3316;44.118;27.258;2023-03-12T07:53:30;100660.91;;;15.37;40.84
6565;BME280;3316;44.118;27.258;2023-03-12T07:55:55;100644.19;;;15.04;41.82
6565;BME280;3316;44.118;27.258;2023-03-12T07:58:21;100640.59;;;14.07;44.18
6565;BME280;3316;44.118;27.258;2023-03-12T08:00:46;100672.34;;;13.29;47.42
6565;BME280;3316;44.118;27.258;2023-03-12T08:03:12;100688.91;;;13.37;47.83
6565;BME280;3316;44.118;27.258;2023-03-12T08:05:37;100677.16;;;13.51;48.47
6565;BME280;3316;44.118;27.258;2023-03-12T08:08:03;100657.06;;;13.42;47.50
6565;BME280;3316;44.118;27.258;2023-03-12T08:10:29;100683.63;;;13.37;47.84
6565;BME280;3316;44.118;27.258;2023-03-12T08:12:54;100689.50;;;13.90;47.12
6565;BME280;3316;44.118;27.258;2023-03-12T08:15:19;100689.91;;;13.72;47.15
6565;BME280;3316;44.118;27.258;2023-03-12T08:17:45;100699.84;;;13.19;48.17
6565;BME280;3316;44.118;27.258;2023-03-12T08:20:12;100717.47;;;13.19;49.95
6565;BME280;3316;44.118;27.258;2023-03-12T08:22:39;100720.81;;;12.81;50.24
6565;BME280;3316;44.118;27.258;2023-03-12T08:25:05;100733.75;;;12.46;51.30
6565;BME280;3316;44.118;27.258;2023-03-12T08:27:32;100693.66;;;12.23;52.40
6565;BME280;3316;44.118;27.258;2023-03-12T08:29:58;100731.28;;;12.34;52.62
6565;BME280;3316;44.118;27.258;2023-03-12T08:32:24;100737.53;;;12.27;52.96
6565;BME280;3316;44.118;27.258;2023-03-12T08:34:49;100743.88;;;12.17;53.48
6565;BME280;3316;44.118;27.258;2023-03-12T08:37:14;100727.69;;;11.82;54.28
6565;BME280;3316;44.118;27.258;2023-03-12T08:39:40;100742.50;;;11.90;55.14
6565;BME280;3316;44.118;27.258;2023-03-12T08:42:05;100738.47;;;11.62;55.40
6565;BME280;3316;44.118;27.258;2023-03-12T08:44:32;100747.03;;;11.79;55.21
6565;BME280;3316;44.118;27.258;2023-03-12T08:46:57;100716.47;;;11.68;55.07
6565;BME280;3316;44.118;27.258;2023-03-12T08:49:23;100754.53;;;12.08;55.12
6565;BME280;3316;44.118;27.258;2023-03-12T08:51:49;100755.41;;;12.08;54.61
6565;BME280;3316;44.118;27.258;2023-03-12T08:54:17;100759.50;;;12.29;54.64
6565;BME280;3316;44.118;27.258;2023-03-12T08:56:42;100748.66;;;12.47;54.99
6565;BME280;3316;44.118;27.258;2023-03-12T08:59:12;100753.59;;;12.12;54.94
6565;BME280;3316;44.118;27.258;2023-03-12T09:01:39;100767.09;;;11.91;55.56
6565;BME280;3316;44.118;27.258;2023-03-12T09:04:05;100763.59;;;11.89;54.81
6565;BME280;3316;44.118;27.258;2023-03-12T09:06:31;100767.91;;;11.96;55.73
6565;BME280;3316;44.118;27.258;2023-03-12T09:08:58;100738.38;;;11.70;55.41
6565;BME280;3316;44.118;27.258;2023-03-12T09:11:31;100770.66;;;11.87;54.40
6565;BME280;3316;44.118;27.258;2023-03-12T09:13:58;100780.31;;;11.89;54.36
6565;BME280;3316;44.118;27.258;2023-03-12T09:16:24;100784.34;;;12.14;54.25
6565;BME280;3316;44.118;27.258;2023-03-12T09:18:49;100770.25;;;12.17;54.11
6565;BME280;3316;44.118;27.258;2023-03-12T09:21:15;100779.88;;;12.74;52.71
6565;BME280;3316;44.118;27.258;2023-03-12T09:23:40;100785.44;;;12.58;53.34
6565;BME280;3316;44.118;27.258;2023-03-12T09:26:10;100766.00;;;12.63;52.29
6565;BME280;3316;44.118;27.258;2023-03-12T09:28:35;100796.47;;;13.32;50.91
6565;BME280;3316;44.118;27.258;2023-03-12T09:31:02;100808.88;;;13.29;50.94
6565;BME280;3316;44.118;27.258;2023-03-12T09:33:28;100804.97;;;12.99;52.00
6565;BME280;3316;44.118;27.258;2023-03-12T09:35:57;100803.03;;;13.12;51.69
6565;BME280;3316;44.118;27.258;2023-03-12T09:38:23;100786.34;;;13.10;50.91
6565;BME280;3316;44.118;27.258;2023-03-12T09:40:49;100798.69;;;13.08;50.95
6565;BME280;3316;44.118;27.258;2023-03-12T09:43:27;100798.25;;;12.80;51.84
6565;BME280;3316;44.118;27.258;2023-03-12T09:45:57;100806.34;;;12.71;52.25
6565;BME280;3316;44.118;27.258;2023-03-12T09:48:32;100780.16;;;12.58;51.74
6565;BME280;3316;44.118;27.258;2023-03-12T09:51:06;100812.38;;;12.79;51.95
6565;BME280;3316;44.118;27.258;2023-03-12T09:53:43;100814.81;;;12.90;51.47
6565;BME280;3316;44.118;27.258;2023-03-12T09:56:16;100833.72;;;13.19;51.03
6565;BME280;3316;44.118;27.258;2023-03-12T09:58:42;100832.75;;;13.23;50.42
6565;BME280;3316;44.118;27.258;2023-03-12T10:01:35;100826.22;;;12.92;51.49
6565;BME280;3316;44.118;27.258;2023-03-12T10:04:36;100839.47;;;12.90;51.91
6565;BME280;3316;44.118;27.258;2023-03-12T10:07:40;100839.28;;;13.02;51.04
6565;BME280;3316;44.118;27.258;2023-03-12T10:13:27;100843.97;;;12.85;51.41
6565;BME280;3316;44.118;27.258;2023-03-12T10:19:00;100833.81;;;12.60;52.08
6565;BME280;3316;44.118;27.258;2023-03-12T10:27:10;100833.38;;;12.29;53.35
6565;BME280;3316;44.118;27.258;2023-03-12T10:29:39;100850.81;;;12.39;53.23
6565;BME280;3316;44.118;27.258;2023-03-12T10:37:21;100855.06;;;12.52;53.38
6565;BME280;3316;44.118;27.258;2023-03-12T10:39:48;100845.53;;;12.39;53.24
6565;BME280;3316;44.118;27.258;2023-03-12T10:42:17;100817.47;;;12.33;52.63
6565;BME280;3316;44.118;27.258;2023-03-12T10:44:48;100844.00;;;12.24;53.20
6565;BME280;3316;44.118;27.258;2023-03-12T10:49:43;100858.56;;;12.51;54.20
6565;BME280;3316;44.118;27.258;2023-03-12T10:52:16;100847.88;;;12.59;54.19
6565;BME280;3316;44.118;27.258;2023-03-12T10:54:48;100846.97;;;12.61;52.92
6565;BME280;3316;44.118;27.258;2023-03-12T10:57:15;100832.16;;;12.51;53.33
6565;BME280;3316;44.118;27.258;2023-03-12T10:59:43;100834.03;;;12.43;53.07
6565;BME280;3316;44.118;27.258;2023-03-12T11:04:56;100842.56;;;12.60;53.43
6565;BME280;3316;44.118;27.258;2023-03-12T11:07:27;100841.63;;;12.66;53.37
6565;BME280;3316;44.118;27.258;2023-03-12T11:10:16;100832.03;;;12.62;52.69
6565;BME280;3316;44.118;27.258;2023-03-12T11:13:21;100841.94;;;13.01;51.67
6565;BME280;3316;44.118;27.258;2023-03-12T11:15:47;100840.03;;;13.10;51.29
6565;BME280;3316;44.118;27.258;2023-03-12T11:21:12;100842.69;;;13.10;50.98
6565;BME280;3316;44.118;27.258;2023-03-12T11:23:42;100849.19;;;12.88;51.89
6565;BME280;3316;44.118;27.258;2023-03-12T11:26:18;100837.88;;;12.80;53.04
6565;BME280;3316;44.118;27.258;2023-03-12T11:28:51;100847.19;;;13.02;52.62
6565;BME280;3316;44.118;27.258;2023-03-12T11:31:22;100840.81;;;13.15;51.60
6565;BME280;3316;44.118;27.258;2023-03-12T11:33:51;100828.22;;;12.78;51.34
6565;BME280;3316;44.118;27.258;2023-03-12T11:39:16;100845.13;;;13.21;50.75
6565;BME280;3316;44.118;27.258;2023-03-12T11:45:13;100849.91;;;13.48;49.17
6565;BME280;3316;44.118;27.258;2023-03-12T12:01:12;100852.31;;;14.04;48.82
6565;BME280;3316;44.118;27.258;2023-03-12T12:06:20;100846.09;;;14.07;48.57
6565;BME280;3316;44.118;27.258;2023-03-12T12:11:44;100853.59;;;14.26;48.03
6565;BME280;3316;44.118;27.258;2023-03-12T12:15:20;100853.06;;;14.52;47.76
6565;BME280;3316;44.118;27.258;2023-03-12T12:17:35;100851.56;;;14.77;46.55
6565;BME280;3316;44.118;27.258;2023-03-12T12:20:20;100853.69;;;14.98;46.54
6565;BME280;3316;44.118;27.258;2023-03-12T12:36:08;100866.81;;;14.68;45.96
6565;BME280;3316;44.118;27.258;2023-03-12T12:38:38;100858.84;;;14.31;45.57
6565;BME280;3316;44.118;27.258;2023-03-12T12:41:14;100870.13;;;13.96;46.41
6565;BME280;3316;44.118;27.258;2023-03-12T12:43:49;100870.31;;;13.42;48.20
6565;BME280;3316;44.118;27.258;2023-03-12T12:46:24;100868.38;;;13.51;48.97
6565;BME280;3316;44.118;27.258;2023-03-12T12:48:58;100875.09;;;13.69;47.90
6565;BME280;3316;44.118;27.258;2023-03-12T12:51:47;100867.72;;;13.84;48.14
6565;BME280;3316;44.118;27.258;2023-03-12T13:02:51;100879.88;;;14.36;46.78
6565;BME280;3316;44.118;27.258;2023-03-12T13:08:00;100882.72;;;14.26;47.37
6565;BME280;3316;44.118;27.258;2023-03-12T13:12:57;100892.50;;;14.23;45.34
6565;BME280;3316;44.118;27.258;2023-03-12T13:26:41;100906.25;;;13.52;43.27
6565;BME280;3316;44.118;27.258;2023-03-12T13:31:53;100899.31;;;13.45;48.36
6565;BME280;3316;44.118;27.258;2023-03-12T13:36:46;100908.09;;;12.92;46.28
6565;BME280;3316;44.118;27.258;2023-03-12T13:41:48;100909.38;;;12.67;46.62
6565;BME280;3316;44.118;27.258;2023-03-12T13:49:34;100912.63;;;12.23;45.88
6565;BME280;3316;44.118;27.258;2023-03-12T13:57:44;100919.22;;;11.86;46.48
6565;BME280;3316;44.118;27.258;2023-03-12T14:00:38;100920.91;;;11.91;45.63
6565;BME280;3316;44.118;27.258;2023-03-12T14:03:11;100924.00;;;12.25;45.27
6565;BME280;3316;44.118;27.258;2023-03-12T14:05:59;100928.91;;;12.55;44.97
6565;BME280;3316;44.118;27.258;2023-03-12T14:16:53;100923.78;;;12.43;44.82
6565;BME280;3316;44.118;27.258;2023-03-12T14:19:25;100929.28;;;12.26;45.65
6565;BME280;3316;44.118;27.258;2023-03-12T14:21:52;100920.06;;;11.89;46.26
6565;BME280;3316;44.118;27.258;2023-03-12T14:24:27;100931.66;;;11.72;45.95
6565;BME280;3316;44.118;27.258;2023-03-12T14:26:56;100920.28;;;11.68;45.06
6565;BME280;3316;44.118;27.258;2023-03-12T14:29:30;100933.09;;;12.00;45.68
6565;BME280;3316;44.118;27.258;2023-03-12T14:32:03;100931.59;;;11.79;43.67
6565;BME280;3316;44.118;27.258;2023-03-12T14:34:33;100948.63;;;11.40;44.21
6565;BME280;3316;44.118;27.258;2023-03-12T14:37:10;100942.63;;;11.23;44.37
6565;BME280;3316;44.118;27.258;2023-03-12T14:39:57;100940.91;;;11.19;43.45
6565;BME280;3316;44.118;27.258;2023-03-12T14:42:32;100942.44;;;11.44;43.38
6565;BME280;3316;44.118;27.258;2023-03-12T14:45:02;100938.75;;;11.62;43.43
6565;BME280;3316;44.118;27.258;2023-03-12T14:47:47;100947.22;;;11.96;43.12
6565;BME280;3316;44.118;27.258;2023-03-12T14:50:19;100959.38;;;12.07;42.46
6565;BME280;3316;44.118;27.258;2023-03-12T14:52:45;100958.34;;;12.22;42.21
6565;BME280;3316;44.118;27.258;2023-03-12T14:55:15;100960.00;;;12.29;42.21
6565;BME280;3316;44.118;27.258;2023-03-12T14:57:43;100951.22;;;12.30;42.13
6565;BME280;3316;44.118;27.258;2023-03-12T15:00:26;100960.72;;;12.43;42.50
6565;BME280;3316;44.118;27.258;2023-03-12T15:02:53;100969.41;;;12.51;41.55
6565;BME280;3316;44.118;27.258;2023-03-12T15:05:21;100954.91;;;12.17;41.58
6565;BME280;3316;44.118;27.258;2023-03-12T15:07:48;100947.88;;;12.14;41.86
6565;BME280;3316;44.118;27.258;2023-03-12T15:12:45;100971.53;;;12.22;42.35
6565;BME280;3316;44.118;27.258;2023-03-12T15:15:34;100975.34;;;11.97;42.39
6565;BME280;3316;44.118;27.258;2023-03-12T15:18:04;100942.22;;;11.69;42.91